createdAt,value
2022-11-09T05:04:07.212Z,13.90
2022-11-09T05:06:35.672Z,13.80
2022-11-09T05:09:05.680Z,13.80
2022-11-09T05:11:33.821Z,13.80
2022-11-09T05:14:01.888Z,13.80
2022-11-09T05:16:30.396Z,13.80
2022-11-09T05:18:58.784Z,13.80
2022-11-09T05:21:28.355Z,13.70
2022-11-09T05:24:01.574Z,13.70
2022-11-09T05:26:31.302Z,13.70
2022-11-09T05:28:59.941Z,13.70
2022-11-09T05:31:29.078Z,13.70
2022-11-09T05:33:57.453Z,13.70
2022-11-09T05:36:27.866Z,13.70
2022-11-09T05:38:56.430Z,13.70
2022-11-09T05:41:24.707Z,13.60
2022-11-09T05:43:53.044Z,13.50
2022-11-09T05:46:21.283Z,13.60
2022-11-09T05:48:49.383Z,13.60
2022-11-09T05:51:17.644Z,13.50
2022-11-09T05:53:47.529Z,13.50
2022-11-09T05:56:16.588Z,13.50
2022-11-09T05:58:44.908Z,13.50
2022-11-09T06:01:15.023Z,13.50
2022-11-09T06:03:44.359Z,13.40
2022-11-09T06:06:14.221Z,13.40
2022-11-09T06:08:42.296Z,13.40
2022-11-09T06:11:16.826Z,13.30
2022-11-09T06:13:49.775Z,13.30
2022-11-09T06:16:18.160Z,13.30
2022-11-09T06:18:46.180Z,13.20
2022-11-09T06:21:14.410Z,13.20
2022-11-09T06:23:42.412Z,13.20
2022-11-09T06:26:13.183Z,13.20
2022-11-09T06:28:42.063Z,13.20
2022-11-09T06:31:13.164Z,13.20
2022-11-09T06:33:41.191Z,13.20
2022-11-09T06:36:10.452Z,13.10
2022-11-09T06:38:38.796Z,13.00
2022-11-09T06:41:07.085Z,13.00
2022-11-09T06:43:36.678Z,13.10
2022-11-09T06:46:05.431Z,13.10
2022-11-09T06:48:33.515Z,13.10
2022-11-09T06:51:02.033Z,13.00
2022-11-09T06:53:31.768Z,13.00
2022-11-09T06:56:00.402Z,13.00
2022-11-09T06:58:29.216Z,12.90
2022-11-09T07:01:00.853Z,12.90
2022-11-09T07:03:29.241Z,12.80
2022-11-09T07:05:57.734Z,12.90
2022-11-09T07:08:25.775Z,12.80
2022-11-09T07:10:54.123Z,12.80
2022-11-09T07:13:22.617Z,12.80
2022-11-09T07:15:55.184Z,12.80
2022-11-09T07:18:24.700Z,12.70
2022-11-09T07:20:52.873Z,12.70
2022-11-09T07:23:21.222Z,12.70
2022-11-09T07:25:49.511Z,12.80
2022-11-09T07:28:17.728Z,12.90
2022-11-09T07:30:50.368Z,12.90
2022-11-09T07:33:19.298Z,12.90
2022-11-09T07:35:48.779Z,12.90
2022-11-09T07:38:19.864Z,12.90
2022-11-09T07:40:47.855Z,12.90
2022-11-09T07:43:15.952Z,12.90
2022-11-09T07:45:43.972Z,12.90
2022-11-09T07:48:13.009Z,13.10
2022-11-09T07:58:13.254Z,13.00
2022-11-09T08:00:42.777Z,12.90
2022-11-09T08:03:12.028Z,12.90
2022-11-09T08:05:40.316Z,12.90
2022-11-09T08:08:10.365Z,12.90
2022-11-09T08:10:39.211Z,12.90
2022-11-09T08:13:12.227Z,12.90
2022-11-09T08:15:41.959Z,12.80
2022-11-09T08:18:14.228Z,12.90
2022-11-09T08:20:42.644Z,12.80
2022-11-09T08:23:12.947Z,12.90
2022-11-09T08:25:41.676Z,12.70
2022-11-09T08:28:14.700Z,12.80
2022-11-09T08:30:43.742Z,12.90
2022-11-09T08:33:13.170Z,12.90
2022-11-09T08:35:41.301Z,12.90
2022-11-09T08:38:10.981Z,12.80
2022-11-09T08:40:40.111Z,12.80
2022-11-09T08:43:11.773Z,12.90
2022-11-09T08:45:42.036Z,12.90
2022-11-09T08:48:18.587Z,12.90
2022-11-09T08:50:46.884Z,12.90
2022-11-09T08:53:16.512Z,13.00
2022-11-09T08:55:49.178Z,13.00
2022-11-09T08:58:20.095Z,13.00
2022-11-09T09:00:48.574Z,13.10
2022-11-09T09:03:17.516Z,13.10
2022-11-09T09:05:45.756Z,13.30
2022-11-09T09:08:15.883Z,13.30
2022-11-09T09:10:44.261Z,13.30
2022-11-09T09:13:12.783Z,13.30
2022-11-09T09:15:42.951Z,13.50
2022-11-09T09:18:11.787Z,13.50
2022-11-09T09:20:40.425Z,13.50
2022-11-09T09:23:09.589Z,13.60
2022-11-09T09:25:39.534Z,13.60
2022-11-09T09:31:51.212Z,13.60
2022-11-09T09:34:19.816Z,13.80
2022-11-09T09:36:48.600Z,13.80
2022-11-09T09:39:16.714Z,13.90
2022-11-09T09:41:50.472Z,13.90
2022-11-09T09:44:26.029Z,14.00
2022-11-09T09:47:01.754Z,14.10
2022-11-09T09:49:32.127Z,14.10
2022-11-09T09:52:04.354Z,14.10
2022-11-09T09:54:36.883Z,14.20
2022-11-09T09:57:05.465Z,14.20
2022-11-09T09:59:38.760Z,14.20
2022-11-09T10:02:13.678Z,14.30
2022-11-09T10:04:43.723Z,14.40
2022-11-09T10:07:17.365Z,14.40
2022-11-09T10:10:06.416Z,14.50
2022-11-09T10:12:46.736Z,14.50
2022-11-09T10:15:19.773Z,14.50
2022-11-09T10:18:02.796Z,14.70
2022-11-09T10:20:39.526Z,14.70
2022-11-09T10:23:37.662Z,14.70
2022-11-09T10:26:10.036Z,14.70
2022-11-09T10:29:09.669Z,14.70
2022-11-09T10:31:35.354Z,14.70
2022-11-09T10:34:19.709Z,14.70
2022-11-09T10:36:54.213Z,14.70
2022-11-09T10:39:23.971Z,14.60
2022-11-09T10:41:53.367Z,14.70
2022-11-09T10:44:22.691Z,14.70
2022-11-09T10:47:05.060Z,14.70
2022-11-09T10:49:35.409Z,14.60
2022-11-09T10:52:05.309Z,14.60
2022-11-09T10:54:38.308Z,14.60
2022-11-09T10:57:15.604Z,14.70
2022-11-09T10:59:49.250Z,14.70
2022-11-09T11:02:41.034Z,14.60
2022-11-09T11:05:34.332Z,14.60
2022-11-09T11:08:34.798Z,14.80
2022-11-09T11:11:38.341Z,14.80
2022-11-09T11:14:23.043Z,14.80
2022-11-09T11:16:53.986Z,15.00
2022-11-09T11:19:39.180Z,15.00
2022-11-09T11:22:32.135Z,15.10
2022-11-09T11:25:19.024Z,15.20
2022-11-09T11:27:53.568Z,15.10
2022-11-09T11:30:28.137Z,15.20
2022-11-09T11:32:56.913Z,15.20
2022-11-09T11:35:32.572Z,15.20
2022-11-09T11:38:12.017Z,15.30
2022-11-09T11:40:43.382Z,15.30
2022-11-09T11:43:26.500Z,15.40
2022-11-09T11:45:59.511Z,15.50
2022-11-09T11:48:58.953Z,15.50
2022-11-09T11:51:34.057Z,15.60
2022-11-09T11:54:10.987Z,15.60
2022-11-09T11:56:44.663Z,15.70
2022-11-09T11:59:39.820Z,15.60
2022-11-09T12:02:27.309Z,15.60
2022-11-09T12:05:21.411Z,15.60
2022-11-09T12:07:57.542Z,15.60
2022-11-09T12:10:38.704Z,15.60
2022-11-09T12:13:14.098Z,15.60
2022-11-09T12:15:50.868Z,15.50
2022-11-09T12:18:35.821Z,15.60
2022-11-09T12:21:15.469Z,15.60
2022-11-09T12:23:56.328Z,15.70
2022-11-09T12:26:46.487Z,15.60
2022-11-09T12:29:24.200Z,15.60
2022-11-09T12:32:03.682Z,15.60
2022-11-09T12:34:35.846Z,15.70
2022-11-09T12:37:07.756Z,15.70
2022-11-09T12:39:41.745Z,15.60
2022-11-09T12:42:17.765Z,15.70
2022-11-09T12:44:49.810Z,15.80
2022-11-09T12:47:22.422Z,15.80
2022-11-09T12:49:51.216Z,15.70
2022-11-09T12:52:30.218Z,15.80
2022-11-09T12:54:58.944Z,15.80
2022-11-09T12:57:33.544Z,15.70
2022-11-09T13:00:02.860Z,15.60
2022-11-09T13:02:32.875Z,15.60
2022-11-09T13:05:02.705Z,15.50
2022-11-09T13:07:49.974Z,15.50
2022-11-09T13:10:29.971Z,15.50
2022-11-09T13:13:20.112Z,15.40
2022-11-09T13:16:13.692Z,15.40
2022-11-09T13:18:51.467Z,15.30
2022-11-09T13:21:49.860Z,15.10
2022-11-09T13:24:55.272Z,15.10
2022-11-09T13:27:39.292Z,15.20
2022-11-09T13:30:40.795Z,15.10
2022-11-09T13:33:28.445Z,15.10
2022-11-09T13:36:14.659Z,15.10
2022-11-09T13:38:43.353Z,15.10
2022-11-09T13:41:43.178Z,15.10
2022-11-09T13:44:32.963Z,15.20
2022-11-09T13:47:07.000Z,15.20
2022-11-09T13:49:46.050Z,15.10
2022-11-09T13:52:43.824Z,15.20
2022-11-09T13:55:26.956Z,15.10
2022-11-09T13:58:00.704Z,15.10
2022-11-09T14:00:29.856Z,15.10
2022-11-09T14:03:06.750Z,15.10
2022-11-09T14:05:37.646Z,15.00
2022-11-09T14:08:07.212Z,15.10
2022-11-09T14:10:49.800Z,15.20
2022-11-09T14:13:33.344Z,15.30
2022-11-09T14:16:07.575Z,15.40
2022-11-09T14:18:45.364Z,15.50
2022-11-09T14:21:22.849Z,15.40
2022-11-09T14:23:51.084Z,15.10
2022-11-09T14:26:21.224Z,15.40
2022-11-09T14:28:51.923Z,15.40
2022-11-09T14:31:26.392Z,15.50
2022-11-09T14:34:06.062Z,15.50
2022-11-09T14:36:36.225Z,15.60
2022-11-09T14:39:06.710Z,15.50
2022-11-09T14:41:35.959Z,15.50
2022-11-09T14:44:04.729Z,15.60
2022-11-09T14:46:33.096Z,15.50
2022-11-09T14:49:04.047Z,15.30
2022-11-09T14:51:35.910Z,15.40
2022-11-09T14:54:05.405Z,15.40
2022-11-09T14:56:45.997Z,15.40
2022-11-09T14:59:16.739Z,15.30
2022-11-09T15:01:59.162Z,15.20
2022-11-09T15:04:30.243Z,15.20
2022-11-09T15:07:01.384Z,15.20
2022-11-09T15:09:35.111Z,15.20
2022-11-09T15:12:03.580Z,15.20
2022-11-09T15:14:33.116Z,15.10
2022-11-09T15:17:16.083Z,15.10
2022-11-09T15:19:52.894Z,15.10
2022-11-09T15:22:47.436Z,15.20
2022-11-09T15:25:37.392Z,15.10
2022-11-09T15:28:23.900Z,15.10
2022-11-09T15:31:12.795Z,15.00
2022-11-09T15:33:51.298Z,14.90
2022-11-09T15:36:27.299Z,14.80
2022-11-09T15:39:01.850Z,14.60
2022-11-09T15:41:31.612Z,14.60
2022-11-09T15:44:00.572Z,14.60
2022-11-09T15:46:35.144Z,14.50
2022-11-09T15:49:14.986Z,14.70
2022-11-09T15:51:45.844Z,14.50
2022-11-09T15:54:14.848Z,14.40
2022-11-09T15:56:44.214Z,14.40
2022-11-09T15:59:17.997Z,14.30
2022-11-09T16:01:47.635Z,14.40
2022-11-09T16:04:16.320Z,14.40
2022-11-09T16:06:47.073Z,14.40
2022-11-09T16:09:15.552Z,14.40
2022-11-09T16:11:44.220Z,14.30
2022-11-09T16:14:12.860Z,14.30
2022-11-09T16:16:44.021Z,14.40
2022-11-09T16:19:15.452Z,14.40
2022-11-09T16:21:45.784Z,14.20
2022-11-09T16:24:17.463Z,14.30
2022-11-09T16:26:46.064Z,14.10
2022-11-09T16:29:14.810Z,14.20
2022-11-09T16:31:51.931Z,14.20
2022-11-09T16:34:27.328Z,14.10
2022-11-09T16:36:57.318Z,13.90
2022-11-09T16:39:28.471Z,14.10
2022-11-09T16:41:57.408Z,14.10
2022-11-09T16:44:27.308Z,14.00
2022-11-09T16:46:56.377Z,14.00
2022-11-09T16:49:24.676Z,13.80
2022-11-09T16:51:52.758Z,13.80
2022-11-09T16:54:22.663Z,13.80
2022-11-09T16:56:52.287Z,13.90
2022-11-09T16:59:22.128Z,13.80
2022-11-09T17:02:00.427Z,13.80
2022-11-09T17:04:31.731Z,13.80
2022-11-09T17:07:01.144Z,13.80
2022-11-09T17:09:34.270Z,13.80
2022-11-09T17:12:02.299Z,13.70
2022-11-09T17:14:33.802Z,13.60
2022-11-09T17:17:01.877Z,13.70
2022-11-09T17:19:33.224Z,13.60
2022-11-09T17:22:01.310Z,13.70
2022-11-09T17:24:30.755Z,13.60
2022-11-09T17:26:58.769Z,13.60
2022-11-09T17:29:27.474Z,13.60
2022-11-09T17:31:55.814Z,13.60
2022-11-09T17:34:23.811Z,13.50
2022-11-09T17:37:04.207Z,13.50
2022-11-09T17:39:34.120Z,13.40
2022-11-09T17:42:02.149Z,13.50
2022-11-09T17:44:30.127Z,13.50
2022-11-09T17:46:58.513Z,13.40
2022-11-09T17:49:26.528Z,13.40
2022-11-09T17:51:54.605Z,13.40
2022-11-09T17:54:22.759Z,13.30
2022-11-09T17:56:52.627Z,13.40
2022-11-09T17:59:21.121Z,13.40
2022-11-09T18:01:49.587Z,13.20
2022-11-09T18:04:17.618Z,13.20
2022-11-09T18:06:45.688Z,13.30
2022-11-09T18:09:44.397Z,13.30
2022-11-09T18:12:04.429Z,13.10
2022-11-09T18:15:12.289Z,13.20
2022-11-09T18:17:40.532Z,13.10
2022-11-09T18:20:09.147Z,13.20
2022-11-09T18:22:39.474Z,13.20
2022-11-09T18:25:08.306Z,13.10
2022-11-09T18:27:37.776Z,13.20
2022-11-09T18:30:07.855Z,13.10
2022-11-09T18:32:42.927Z,13.10
2022-11-09T18:35:11.358Z,13.10
2022-11-09T18:37:40.687Z,13.00
2022-11-09T18:40:09.498Z,12.80
2022-11-09T18:42:38.922Z,13.00
2022-11-09T18:45:07.968Z,12.90
2022-11-09T18:47:36.141Z,12.90
2022-11-09T18:50:04.448Z,13.10
2022-11-09T18:52:34.080Z,13.00
2022-11-09T18:55:04.988Z,13.10
2022-11-09T18:57:35.252Z,12.90
2022-11-09T19:00:05.507Z,12.80
2022-11-09T19:02:33.616Z,12.90
2022-11-09T19:05:01.682Z,12.80
2022-11-09T19:07:29.954Z,12.90
2022-11-09T19:09:58.336Z,12.80
2022-11-09T19:12:32.509Z,12.90
2022-11-09T19:15:00.565Z,12.90
2022-11-09T19:17:30.013Z,13.00
2022-11-09T19:19:58.162Z,13.00
2022-11-09T19:22:28.683Z,13.00
2022-11-09T19:24:56.752Z,13.00
2022-11-09T19:27:28.744Z,12.90
2022-11-09T19:30:04.949Z,13.00
2022-11-09T19:32:38.473Z,12.80
2022-11-09T19:35:06.983Z,12.80
2022-11-09T19:37:35.008Z,12.90
2022-11-09T19:40:03.480Z,12.90
2022-11-09T19:42:31.581Z,12.80
2022-11-09T19:44:59.678Z,12.90
2022-11-09T19:47:27.759Z,12.90
2022-11-09T19:49:57.193Z,12.90
2022-11-09T19:52:25.251Z,12.90
2022-11-09T19:54:53.398Z,12.90
2022-11-09T19:57:21.783Z,12.90
2022-11-09T19:59:50.067Z,12.90
2022-11-09T20:02:18.160Z,12.90
2022-11-09T20:04:47.532Z,12.80
2022-11-09T20:07:17.026Z,12.80
2022-11-09T20:09:45.207Z,12.90
2022-11-09T20:12:30.507Z,12.90
2022-11-09T20:14:58.656Z,12.90
2022-11-09T20:17:26.738Z,12.80
2022-11-09T20:19:54.794Z,12.80
2022-11-09T20:22:24.241Z,12.80
2022-11-09T20:24:52.605Z,12.70
2022-11-09T20:27:20.685Z,12.70
2022-11-09T20:29:48.740Z,12.70
2022-11-09T20:32:21.559Z,12.50
2022-11-09T20:34:50.172Z,12.70
2022-11-09T20:37:18.424Z,12.50
2022-11-09T20:39:47.873Z,12.30
2022-11-09T20:42:16.300Z,12.50
2022-11-09T20:44:44.320Z,12.50
2022-11-09T20:47:12.298Z,12.50
2022-11-09T20:49:40.454Z,12.50
2022-11-09T20:52:08.476Z,12.50
2022-11-09T20:54:36.484Z,12.50
2022-11-09T20:57:06.477Z,12.50
2022-11-09T20:59:34.999Z,12.40
2022-11-09T21:02:03.114Z,12.40
2022-11-09T21:04:31.723Z,12.40
2022-11-09T21:06:59.757Z,12.40
2022-11-09T21:09:27.863Z,12.30
2022-11-09T21:12:13.429Z,12.40
2022-11-09T21:14:43.275Z,12.40
2022-11-09T21:17:12.067Z,12.20
2022-11-09T21:19:40.087Z,12.20
2022-11-09T21:22:08.237Z,12.30
2022-11-09T21:24:59.109Z,12.20
2022-11-09T21:27:48.041Z,12.10
2022-11-09T21:30:19.308Z,12.00
2022-11-09T21:32:47.600Z,12.10
2022-11-09T21:35:16.002Z,12.00
2022-11-09T21:37:44.651Z,12.20
2022-11-09T21:40:13.355Z,12.20
2022-11-09T21:42:41.456Z,12.30
2022-11-09T21:45:10.731Z,12.00
2022-11-09T21:47:40.205Z,12.10
2022-11-09T21:50:12.577Z,12.10
2022-11-09T21:52:41.403Z,12.10
2022-11-09T21:55:09.827Z,12.00
2022-11-09T21:57:38.131Z,12.00
2022-11-09T22:00:07.231Z,11.90
2022-11-09T22:02:35.599Z,12.00
2022-11-09T22:05:05.487Z,12.00
2022-11-09T22:07:33.907Z,11.90
2022-11-09T22:10:10.780Z,11.90
2022-11-09T22:12:57.214Z,11.90
2022-11-09T22:15:42.672Z,11.80
2022-11-09T22:18:31.477Z,11.90
2022-11-09T22:20:59.883Z,11.70
2022-11-09T22:23:27.860Z,11.80
2022-11-09T22:25:56.003Z,11.80
2022-11-09T22:28:24.027Z,11.80
2022-11-09T22:30:52.020Z,11.80
2022-11-09T22:33:24.459Z,11.80
2022-11-09T22:35:55.981Z,11.90
2022-11-09T22:38:25.612Z,11.80
2022-11-09T22:40:59.993Z,11.80
2022-11-09T22:43:28.397Z,11.90
2022-11-09T22:45:56.394Z,11.80
2022-11-09T22:48:24.791Z,11.70
